Time;durP1;ratioP1;P1;durP2;ratioP2;P2;SDS_P1;SDS_P2;PMS_P1;PMS_P2;Temp;Humidity;BMP_temperature;BMP_pressure;BME280_temperature;BME280_humidity;BME280_pressure;Samples;Min_cycle;Max_cycle;Signal;HPM_P1;HPM_P2
2023/06/04 00:00:17;;;;;;;5.20;2.70;;;13.20;99.90;;;;;;4950079;28;20200;-59
2023/06/04 00:02:45;;;;;;;2.20;1.93;;;13.10;99.90;;;;;;4949335;28;20721;-60
2023/06/04 00:05:15;;;;;;;2.30;2.20;;;13.10;99.90;;;;;;4950280;28;20686;-60
2023/06/04 00:07:44;;;;;;;3.80;2.30;;;13.00;99.90;;;;;;4946615;28;20224;-60
2023/06/04 00:10:12;;;;;;;3.90;2.20;;;13.00;99.90;;;;;;4950616;28;20220;-60
2023/06/04 00:12:40;;;;;;;5.30;1.80;;;13.00;99.90;;;;;;4948016;28;20196;-60
2023/06/04 00:15:09;;;;;;;1.93;1.93;;;13.00;99.90;;;;;;4950522;28;20196;-60
2023/06/04 00:17:37;;;;;;;2.30;2.20;;;12.90;99.90;;;;;;4945551;28;20583;-60
2023/06/04 00:20:07;;;;;;;2.17;2.07;;;12.90;99.90;;;;;;4951899;28;20231;-60
2023/06/04 00:22:36;;;;;;;3.23;2.20;;;12.90;99.90;;;;;;4951213;28;20226;-60
2023/06/04 00:25:05;;;;;;;2.40;2.20;;;12.90;99.90;;;;;;4939910;28;20224;-60
2023/06/04 00:27:34;;;;;;;6.20;2.90;;;12.90;99.90;;;;;;4948364;28;20218;-59
2023/06/04 00:30:02;;;;;;;3.93;2.60;;;12.90;99.90;;;;;;4952219;28;20185;-61
2023/06/04 00:32:30;;;;;;;2.50;2.30;;;12.80;99.90;;;;;;4948672;28;20220;-61
2023/06/04 00:34:59;;;;;;;4.33;2.50;;;12.80;99.90;;;;;;4951763;28;20219;-61
2023/06/04 00:37:28;;;;;;;2.63;2.53;;;12.80;99.90;;;;;;4949280;28;20220;-61
2023/06/04 00:39:58;;;;;;;6.60;2.50;;;12.80;99.90;;;;;;4951370;28;20228;-60
2023/06/04 00:42:26;;;;;;;2.77;2.57;;;12.80;99.90;;;;;;4952203;28;20203;-61
2023/06/04 00:44:57;;;;;;;2.77;2.50;;;12.80;99.90;;;;;;4946778;29;20707;-61
2023/06/04 00:47:26;;;;;;;3.10;2.33;;;12.70;99.90;;;;;;4946317;28;20740;-61
2023/06/04 00:49:58;;;;;;;2.77;2.53;;;12.70;99.90;;;;;;4949405;28;20227;-61
2023/06/04 00:52:27;;;;;;;3.10;2.67;;;12.70;99.90;;;;;;4951150;28;20274;-61
2023/06/04 00:54:56;;;;;;;3.83;2.67;;;12.70;99.90;;;;;;4949366;28;20240;-61
2023/06/04 00:57:25;;;;;;;4.20;2.50;;;12.70;99.90;;;;;;4948769;28;20283;-61
2023/06/04 00:59:53;;;;;;;3.00;2.80;;;12.60;99.90;;;;;;4946557;29;20223;-61
2023/06/04 01:02:25;;;;;;;5.43;2.97;;;12.60;99.90;;;;;;4945876;28;20231;-61
2023/06/04 01:05:00;;;;;;;3.43;2.40;;;12.60;99.90;;;;;;4945440;28;20223;-61
2023/06/04 01:07:30;;;;;;;3.97;2.83;;;12.60;99.90;;;;;;4951613;28;20224;-61
2023/06/04 01:09:59;;;;;;;3.00;2.80;;;12.60;99.90;;;;;;4951305;28;20345;-61
2023/06/04 01:12:29;;;;;;;2.87;2.67;;;12.60;99.90;;;;;;4951335;29;20222;-61
2023/06/04 01:14:57;;;;;;;2.77;2.67;;;12.60;99.90;;;;;;4948647;28;20221;-61
2023/06/04 01:17:36;;;;;;;3.43;2.80;;;12.60;99.90;;;;;;4949110;28;20228;-61
2023/06/04 01:20:32;;;;;;;4.17;2.70;;;12.50;99.90;;;;;;4954462;28;20712;-61
2023/06/04 01:23:20;;;;;;;3.20;2.90;;;12.40;99.90;;;;;;4952673;28;20326;-61
2023/06/04 01:25:50;;;;;;;9.40;3.20;;;12.40;99.90;;;;;;4950069;28;20231;-61
2023/06/04 01:28:21;;;;;;;5.63;2.80;;;12.40;99.90;;;;;;4950427;28;21757;-61
2023/06/04 01:30:50;;;;;;;3.17;2.90;;;12.30;99.90;;;;;;4951050;28;20274;-60
2023/06/04 01:33:20;;;;;;;3.30;3.00;;;12.30;99.90;;;;;;4951011;28;20651;-61
2023/06/04 01:35:49;;;;;;;3.67;2.97;;;12.30;99.90;;;;;;4951711;28;21428;-61
2023/06/04 01:38:17;;;;;;;3.33;3.03;;;12.30;99.90;;;;;;4953090;28;20223;-61
2023/06/04 01:40:47;;;;;;;3.50;3.20;;;12.20;99.90;;;;;;4952209;28;20228;-61
2023/06/04 01:43:15;;;;;;;3.47;3.10;;;12.20;99.90;;;;;;4950504;28;20232;-60
2023/06/04 01:45:45;;;;;;;3.43;3.10;;;12.10;99.90;;;;;;4949681;28;20936;-61
2023/06/04 01:48:13;;;;;;;3.87;3.37;;;12.10;99.90;;;;;;4947905;28;20204;-61
2023/06/04 01:50:41;;;;;;;3.10;2.90;;;12.10;99.90;;;;;;4946571;28;20224;-61
2023/06/04 01:53:10;;;;;;;4.63;3.20;;;12.10;99.90;;;;;;4951369;28;20243;-61
2023/06/04 01:55:38;;;;;;;5.83;3.27;;;12.00;99.90;;;;;;4948180;28;20215;-61
2023/06/04 01:58:09;;;;;;;4.10;2.90;;;12.00;99.90;;;;;;4946122;28;20223;-61
2023/06/04 02:00:37;;;;;;;4.90;2.93;;;12.00;99.90;;;;;;4948653;28;20267;-60
2023/06/04 02:03:08;;;;;;;3.07;2.87;;;12.00;99.90;;;;;;4951766;28;20200;-61
2023/06/04 02:05:37;;;;;;;3.80;3.50;;;12.00;99.90;;;;;;4949357;28;20228;-61
2023/06/04 02:08:06;;;;;;;4.23;3.00;;;12.00;99.90;;;;;;4955299;28;20251;-60
2023/06/04 02:10:34;;;;;;;3.63;3.30;;;12.00;99.90;;;;;;4952737;28;20230;-61
2023/06/04 02:13:03;;;;;;;3.17;2.90;;;12.00;99.90;;;;;;4950215;28;20695;-61
2023/06/04 02:15:33;;;;;;;4.07;3.10;;;12.00;99.90;;;;;;4951225;28;20635;-60
2023/06/04 02:18:15;;;;;;;4.07;3.40;;;12.00;99.90;;;;;;4949714;28;20206;-61
2023/06/04 02:20:45;;;;;;;3.30;3.00;;;11.90;99.90;;;;;;4955787;28;20226;-61
2023/06/04 02:23:17;;;;;;;3.37;3.00;;;11.90;99.90;;;;;;4951485;28;20618;-61
2023/06/04 02:25:47;;;;;;;8.43;3.40;;;11.90;99.90;;;;;;4951907;28;21178;-61
2023/06/04 02:28:16;;;;;;;4.33;3.70;;;11.90;99.90;;;;;;4952841;28;20231;-60
2023/06/04 02:30:46;;;;;;;3.43;3.20;;;11.80;99.90;;;;;;4951180;28;20612;-60
2023/06/04 02:33:16;;;;;;;9.40;3.50;;;11.80;99.90;;;;;;4952128;28;20623;-61
2023/06/04 02:35:44;;;;;;;4.83;3.33;;;11.80;99.90;;;;;;4952491;28;20587;-60
2023/06/04 02:38:13;;;;;;;5.03;3.27;;;11.80;99.90;;;;;;4953116;28;20717;-60
2023/06/04 02:40:43;;;;;;;5.40;3.10;;;11.80;99.90;;;;;;4951240;28;20220;-61
2023/06/04 02:43:11;;;;;;;3.40;3.10;;;11.70;99.90;;;;;;4950977;28;20314;-61
2023/06/04 02:45:41;;;;;;;6.00;3.03;;;11.70;99.90;;;;;;4950006;28;20755;-60
2023/06/04 02:48:09;;;;;;;4.63;3.57;;;11.60;99.90;;;;;;4950310;29;21886;-61
2023/06/04 02:50:42;;;;;;;4.90;3.40;;;11.60;99.90;;;;;;4950382;28;20216;-61
2023/06/04 02:53:10;;;;;;;3.73;3.33;;;11.60;99.90;;;;;;4949770;28;20766;-61
2023/06/04 02:55:41;;;;;;;2.97;2.77;;;11.50;99.90;;;;;;4953682;28;20230;-61
2023/06/04 02:58:09;;;;;;;3.80;3.10;;;11.50;99.90;;;;;;4950364;28;20583;-61
2023/06/04 03:00:38;;;;;;;3.50;3.20;;;11.40;99.90;;;;;;4950354;28;20251;-60
2023/06/04 03:03:06;;;;;;;3.30;3.10;;;11.40;99.90;;;;;;4952006;28;20200;-60
2023/06/04 03:05:36;;;;;;;4.00;3.50;;;11.30;99.90;;;;;;4949141;28;20219;-60
2023/06/04 03:08:06;;;;;;;6.20;3.30;;;11.30;99.90;;;;;;4948717;28;20713;-60
2023/06/04 03:10:35;;;;;;;3.80;3.50;;;11.30;99.90;;;;;;4952354;28;20248;-61
2023/06/04 03:13:03;;;;;;;3.77;3.30;;;11.20;99.90;;;;;;4950815;28;20598;-60
2023/06/04 03:15:32;;;;;;;3.53;3.23;;;11.20;99.90;;;;;;4951277;28;20200;-60
2023/06/04 03:18:00;;;;;;;3.40;3.20;;;11.20;99.90;;;;;;4951132;28;20278;-60
2023/06/04 03:20:28;;;;;;;5.20;3.23;;;11.20;99.90;;;;;;4954423;28;20227;-61
2023/06/04 03:23:00;;;;;;;6.40;3.40;;;11.20;99.90;;;;;;4949710;28;20227;-61
2023/06/04 03:25:29;;;;;;;6.43;3.53;;;11.10;99.90;;;;;;4950400;28;20227;-60
2023/06/04 03:27:58;;;;;;;3.70;3.50;;;11.10;99.90;;;;;;4945770;28;20220;-60
2023/06/04 03:30:26;;;;;;;4.63;3.60;;;11.10;99.90;;;;;;4950954;28;20222;-61
2023/06/04 03:32:54;;;;;;;4.20;3.13;;;11.10;99.90;;;;;;4952415;28;20224;-60
2023/06/04 03:35:23;;;;;;;3.83;3.10;;;11.10;99.90;;;;;;4949103;28;20231;-60
2023/06/04 03:37:51;;;;;;;4.70;3.20;;;11.00;99.90;;;;;;4951439;28;20310;-61
2023/06/04 03:40:19;;;;;;;4.20;3.23;;;11.00;99.90;;;;;;4950929;28;20591;-60
2023/06/04 03:42:49;;;;;;;3.60;3.30;;;11.00;99.90;;;;;;4949982;28;20223;-61
2023/06/04 03:45:17;;;;;;;4.10;3.70;;;11.00;99.90;;;;;;4950723;28;20200;-60
2023/06/04 03:47:47;;;;;;;3.80;3.50;;;11.00;99.90;;;;;;4951546;28;20275;-61
2023/06/04 03:50:15;;;;;;;3.67;3.47;;;11.00;99.90;;;;;;4949532;28;20235;-61
2023/06/04 03:52:44;;;;;;;3.97;3.60;;;11.00;99.90;;;;;;4950640;28;20582;-60
2023/06/04 03:55:12;;;;;;;3.43;3.23;;;10.90;99.90;;;;;;4950452;28;20610;-60
2023/06/04 03:57:41;;;;;;;6.53;3.93;;;10.90;99.90;;;;;;4950255;28;20532;-61
2023/06/04 04:00:13;;;;;;;5.47;3.60;;;10.90;99.90;;;;;;4949168;28;20524;-61
2023/06/04 04:02:41;;;;;;;5.03;3.40;;;10.90;99.90;;;;;;4944512;28;20228;-60
2023/06/04 04:05:11;;;;;;;3.87;3.67;;;10.90;99.90;;;;;;4943556;28;20239;-60
2023/06/04 04:07:41;;;;;;;3.80;3.50;;;10.90;99.90;;;;;;4950597;28;20215;-60
2023/06/04 04:10:10;;;;;;;5.00;3.70;;;10.90;99.90;;;;;;4949568;28;20227;-60
2023/06/04 04:12:39;;;;;;;3.77;3.40;;;10.90;99.90;;;;;;4945236;28;20532;-60
2023/06/04 04:15:08;;;;;;;5.87;3.50;;;10.90;99.90;;;;;;4952294;28;20223;-61
2023/06/04 04:17:38;;;;;;;5.00;3.93;;;10.90;99.90;;;;;;4946552;28;20231;-61
2023/06/04 04:20:07;;;;;;;5.90;3.70;;;11.00;99.90;;;;;;4951537;28;20706;-61
2023/06/04 04:22:35;;;;;;;5.57;3.67;;;11.00;99.90;;;;;;4952455;28;20216;-61
2023/06/04 04:25:04;;;;;;;3.97;3.47;;;11.00;99.90;;;;;;4950882;28;20231;-61
2023/06/04 04:27:34;;;;;;;4.93;3.20;;;11.10;99.90;;;;;;4953151;28;20202;-61
2023/06/04 04:30:04;;;;;;;4.33;3.87;;;11.10;99.90;;;;;;4949231;29;20219;-61
2023/06/04 04:32:32;;;;;;;4.17;3.77;;;11.20;99.90;;;;;;4951853;28;20279;-61
2023/06/04 04:35:03;;;;;;;3.53;3.33;;;11.20;99.90;;;;;;4948538;28;20228;-60
2023/06/04 04:37:32;;;;;;;3.20;3.00;;;11.30;99.90;;;;;;4952681;28;20322;-61
2023/06/04 04:40:00;;;;;;;8.53;3.50;;;11.30;99.90;;;;;;4952597;28;20337;-60
2023/06/04 04:42:28;;;;;;;4.17;3.77;;;11.40;99.90;;;;;;4951970;28;20195;-61
2023/06/04 04:44:57;;;;;;;6.13;3.43;;;11.50;99.90;;;;;;4950923;29;20218;-61
2023/06/04 04:47:25;;;;;;;5.63;4.17;;;11.60;99.90;;;;;;4948519;28;20235;-61
2023/06/04 04:49:53;;;;;;;3.93;3.63;;;11.60;99.90;;;;;;4943271;28;20220;-61
2023/06/04 04:52:23;;;;;;;5.17;3.43;;;11.70;99.90;;;;;;4951323;28;20223;-61
2023/06/04 04:54:55;;;;;;;9.07;3.70;;;11.70;99.90;;;;;;4954860;28;20234;-61
2023/06/04 04:57:23;;;;;;;3.37;3.20;;;11.80;99.90;;;;;;4955168;28;20188;-61
2023/06/04 04:59:52;;;;;;;3.67;3.40;;;12.00;99.90;;;;;;4951524;28;20223;-61
2023/06/04 05:02:20;;;;;;;5.87;3.50;;;12.00;99.90;;;;;;4951312;28;20223;-61
2023/06/04 05:04:49;;;;;;;3.90;3.63;;;12.20;99.90;;;;;;4949338;28;20228;-60
2023/06/04 05:07:17;;;;;;;3.90;3.60;;;12.20;99.90;;;;;;4952384;28;20215;-61
2023/06/04 05:09:46;;;;;;;3.60;3.30;;;12.30;99.90;;;;;;4952948;28;20220;-61
2023/06/04 05:12:15;;;;;;;8.20;3.70;;;12.40;99.90;;;;;;4952899;28;20208;-61
2023/06/04 05:14:44;;;;;;;3.63;3.33;;;12.50;99.90;;;;;;4950943;28;20231;-61
2023/06/04 05:17:12;;;;;;;3.73;3.30;;;12.60;99.90;;;;;;4947986;28;20227;-61
2023/06/04 05:19:42;;;;;;;3.97;3.60;;;12.80;99.90;;;;;;4948108;28;20231;-61
2023/06/04 05:22:10;;;;;;;3.50;3.23;;;12.90;99.90;;;;;;4944969;28;20232;-61
2023/06/04 05:24:38;;;;;;;5.90;3.30;;;13.00;99.90;;;;;;4955517;28;20192;-61
2023/06/04 05:27:09;;;;;;;4.10;3.27;;;13.10;99.90;;;;;;4953454;28;20200;-61
2023/06/04 05:29:37;;;;;;;3.37;3.07;;;13.30;99.90;;;;;;4954190;28;20216;-61
2023/06/04 05:32:05;;;;;;;3.87;3.50;;;13.30;99.90;;;;;;4953092;28;20231;-61
2023/06/04 05:34:36;;;;;;;3.80;3.20;;;13.50;99.90;;;;;;4951355;28;20239;-61
2023/06/04 05:37:08;;;;;;;3.20;3.00;;;13.60;99.90;;;;;;4955090;28;20236;-61
2023/06/04 05:39:39;;;;;;;3.97;3.13;;;13.70;99.90;;;;;;4952180;28;20219;-60
2023/06/04 05:42:09;;;;;;;3.40;2.90;;;13.80;99.90;;;;;;4954070;28;20294;-61
2023/06/04 05:44:37;;;;;;;6.57;3.23;;;13.90;99.90;;;;;;4954445;28;20880;-61
2023/06/04 05:47:06;;;;;;;4.70;3.17;;;14.00;99.90;;;;;;4951337;28;20231;-61
2023/06/04 05:49:35;;;;;;;3.23;2.90;;;14.00;99.90;;;;;;4953113;28;20224;-61
2023/06/04 05:52:04;;;;;;;3.40;3.10;;;14.20;99.90;;;;;;4951767;28;20228;-63
2023/06/04 05:54:32;;;;;;;4.43;3.10;;;14.20;99.90;;;;;;4951506;28;20196;-60
2023/06/04 05:57:01;;;;;;;3.17;2.90;;;14.30;99.90;;;;;;4948857;29;20223;-61
2023/06/04 05:59:30;;;;;;;2.83;2.53;;;14.40;99.90;;;;;;4953264;28;20239;-61
2023/06/04 06:01:59;;;;;;;3.87;2.80;;;14.50;99.90;;;;;;4949429;28;20226;-61
2023/06/04 06:04:27;;;;;;;4.47;3.03;;;14.70;99.90;;;;;;4949942;28;20211;-61
2023/06/04 06:06:56;;;;;;;2.67;2.57;;;14.90;99.90;;;;;;4952082;28;20703;-61
2023/06/04 06:09:25;;;;;;;3.00;2.90;;;15.00;99.90;;;;;;4949895;28;20291;-61
2023/06/04 06:11:53;;;;;;;3.13;2.93;;;15.00;99.90;;;;;;4947386;28;20578;-61
2023/06/04 06:14:23;;;;;;;6.30;3.10;;;15.10;99.90;;;;;;4949229;28;20227;-61
2023/06/04 06:16:52;;;;;;;3.20;3.00;;;15.20;99.90;;;;;;4951079;28;20234;-61
2023/06/04 06:19:21;;;;;;;4.43;3.20;;;15.30;99.90;;;;;;4952588;28;20228;-61
2023/06/04 06:21:49;;;;;;;2.60;2.40;;;15.30;99.90;;;;;;4950386;28;20236;-61
2023/06/04 06:24:17;;;;;;;3.13;2.83;;;15.40;99.90;;;;;;4950787;29;20204;-62
2023/06/04 06:26:46;;;;;;;4.57;2.90;;;15.60;99.90;;;;;;4947777;28;20231;-62
2023/06/04 06:29:14;;;;;;;2.90;2.63;;;15.70;99.90;;;;;;4949736;28;20228;-62
2023/06/04 06:31:42;;;;;;;8.13;3.10;;;15.80;99.90;;;;;;4947663;28;20228;-62
2023/06/04 06:34:12;;;;;;;2.83;2.53;;;15.80;99.90;;;;;;4953523;28;20259;-61
2023/06/04 06:36:41;;;;;;;4.83;3.00;;;15.80;99.90;;;;;;4944521;28;20225;-61
2023/06/04 06:39:10;;;;;;;3.67;2.87;;;15.90;99.90;;;;;;4950418;28;20201;-61
2023/06/04 06:41:39;;;;;;;2.90;2.70;;;16.10;99.90;;;;;;4948899;28;20247;-61
2023/06/04 06:44:08;;;;;;;4.73;2.47;;;16.10;99.90;;;;;;4946466;28;20236;-61
2023/06/04 06:46:36;;;;;;;3.80;3.00;;;16.20;99.90;;;;;;4948500;28;20227;-62
2023/06/04 06:49:04;;;;;;;10.23;3.27;;;16.30;99.90;;;;;;4949607;28;20223;-62
2023/06/04 06:51:34;;;;;;;3.77;2.20;;;16.40;99.90;;;;;;4945519;28;20213;-61
2023/06/04 06:54:02;;;;;;;3.00;2.43;;;16.60;99.90;;;;;;4950021;29;20204;-62
2023/06/04 06:56:31;;;;;;;3.00;2.70;;;16.80;99.90;;;;;;4949232;28;20319;-61
2023/06/04 06:58:59;;;;;;;2.70;2.60;;;17.00;99.90;;;;;;4948494;28;20224;-62
2023/06/04 07:01:28;;;;;;;2.77;2.30;;;17.20;99.90;;;;;;4950362;28;20341;-61
2023/06/04 07:03:56;;;;;;;2.20;2.10;;;17.30;99.90;;;;;;4939763;28;20267;-61
2023/06/04 07:06:24;;;;;;;2.50;2.30;;;17.40;99.90;;;;;;4944095;28;20196;-62
2023/06/04 07:08:54;;;;;;;3.13;2.27;;;17.50;99.90;;;;;;4944774;28;20220;-62
2023/06/04 07:11:22;;;;;;;2.20;2.10;;;17.60;99.90;;;;;;4944565;28;20315;-61
2023/06/04 07:13:50;;;;;;;3.70;2.30;;;17.70;99.90;;;;;;4944003;28;20231;-62
2023/06/04 07:16:20;;;;;;;2.40;2.30;;;17.80;99.90;;;;;;4946131;28;20228;-62
2023/06/04 07:18:49;;;;;;;2.60;2.43;;;17.80;99.90;;;;;;4944852;28;20840;-62
2023/06/04 07:21:19;;;;;;;3.07;2.33;;;17.80;99.90;;;;;;4949721;28;20521;-62
2023/06/04 07:23:49;;;;;;;2.77;2.57;;;17.90;99.90;;;;;;4952090;28;20233;-62
2023/06/04 07:26:20;;;;;;;2.10;2.10;;;18.00;99.90;;;;;;4946853;28;20575;-61
2023/06/04 07:28:48;;;;;;;2.40;2.30;;;18.30;99.90;;;;;;4949725;28;20579;-62
2023/06/04 07:31:17;;;;;;;2.70;2.30;;;18.50;99.90;;;;;;4949483;28;20219;-61
2023/06/04 07:33:45;;;;;;;3.30;2.50;;;18.60;99.90;;;;;;4946859;28;20208;-62
2023/06/04 07:36:14;;;;;;;2.33;2.17;;;18.70;99.90;;;;;;4949173;28;20228;-62
2023/06/04 07:38:43;;;;;;;2.40;2.30;;;18.90;99.90;;;;;;4952620;28;20231;-61
2023/06/04 07:41:11;;;;;;;6.23;2.40;;;19.00;99.90;;;;;;4944166;28;20227;-62
2023/06/04 07:43:41;;;;;;;2.37;2.27;;;19.10;99.90;;;;;;4941886;28;20211;-61
2023/06/04 07:46:09;;;;;;;3.10;2.00;;;19.20;99.90;;;;;;4943445;28;20240;-62
2023/06/04 07:48:38;;;;;;;2.00;1.90;;;19.30;99.90;;;;;;4946383;28;20218;-61
2023/06/04 07:51:06;;;;;;;7.70;2.33;;;19.30;99.90;;;;;;4949464;28;20567;-62
2023/06/04 07:53:35;;;;;;;3.33;1.93;;;19.40;99.90;;;;;;4947814;28;20622;-62
2023/06/04 07:56:04;;;;;;;3.23;1.97;;;19.40;99.90;;;;;;4946625;28;20235;-62
2023/06/04 07:58:32;;;;;;;2.27;2.17;;;19.50;99.90;;;;;;4941310;28;20229;-62
2023/06/04 08:01:02;;;;;;;2.23;2.13;;;19.50;99.90;;;;;;4942544;28;20715;-62
2023/06/04 08:03:31;;;;;;;2.13;2.03;;;19.70;99.90;;;;;;4950201;28;20188;-61
2023/06/04 08:06:00;;;;;;;2.63;2.43;;;19.80;99.90;;;;;;4945029;28;20201;-62
2023/06/04 08:08:33;;;;;;;2.10;2.00;;;19.80;99.90;;;;;;4951621;28;20232;-62
2023/06/04 08:11:02;;;;;;;3.63;2.03;;;20.10;99.90;;;;;;4946331;28;20228;-61
2023/06/04 08:13:30;;;;;;;1.80;1.70;;;20.30;99.90;;;;;;4946776;28;20228;-62
2023/06/04 08:15:58;;;;;;;1.83;1.80;;;20.40;99.90;;;;;;4939836;28;20235;-62
2023/06/04 08:18:28;;;;;;;1.87;1.77;;;20.70;99.90;;;;;;4939309;28;20295;-62
2023/06/04 08:20:57;;;;;;;2.00;1.70;;;20.70;99.90;;;;;;4944819;28;20234;-62
2023/06/04 08:23:25;;;;;;;2.20;2.10;;;20.80;99.90;;;;;;4942301;28;20680;-62
2023/06/04 08:25:54;;;;;;;4.03;1.80;;;21.10;99.90;;;;;;4948641;28;20229;-62
2023/06/04 08:28:22;;;;;;;1.90;1.80;;;21.20;99.90;;;;;;4944686;28;20225;-62
2023/06/04 08:30:50;;;;;;;1.80;1.70;;;21.70;99.90;;;;;;4946991;28;20225;-62
2023/06/04 08:33:19;;;;;;;2.00;1.90;;;21.70;99.90;;;;;;4946938;28;20221;-62
2023/06/04 08:35:48;;;;;;;2.03;1.90;;;21.70;99.90;;;;;;4948372;28;20320;-62
2023/06/04 08:38:17;;;;;;;2.70;1.83;;;21.70;99.90;;;;;;4943019;28;20220;-64
2023/06/04 08:40:45;;;;;;;1.90;1.70;;;21.70;99.90;;;;;;4945484;28;20231;-62
2023/06/04 08:43:15;;;;;;;2.33;1.73;;;22.00;99.90;;;;;;4943697;28;20216;-62
2023/06/04 08:45:48;;;;;;;1.50;1.50;;;22.40;99.90;;;;;;4942203;28;20211;-62
2023/06/04 08:48:19;;;;;;;5.07;1.90;;;22.80;99.90;;;;;;4942811;28;20256;-62
2023/06/04 08:50:50;;;;;;;3.20;1.77;;;22.80;99.90;;;;;;4945789;28;20234;-62
2023/06/04 08:53:19;;;;;;;2.90;1.93;;;22.90;99.90;;;;;;4943931;28;20247;-62
2023/06/04 08:55:51;;;;;;;3.53;1.60;;;23.00;99.90;;;;;;4939051;28;20228;-62
2023/06/04 08:58:21;;;;;;;1.80;1.70;;;23.20;99.90;;;;;;4937892;28;20224;-62
2023/06/04 09:00:50;;;;;;;1.70;1.40;;;23.30;99.90;;;;;;4939641;28;20255;-62
2023/06/04 09:03:20;;;;;;;2.10;1.47;;;23.40;99.90;;;;;;4938079;28;20678;-62
2023/06/04 09:05:51;;;;;;;2.57;1.80;;;23.40;99.90;;;;;;4945420;28;20243;-63
2023/06/04 09:08:22;;;;;;;1.47;1.47;;;23.50;99.90;;;;;;4945821;28;20242;-62
2023/06/04 09:10:52;;;;;;;1.50;1.50;;;23.90;99.90;;;;;;4946900;28;20227;-62
2023/06/04 09:13:23;;;;;;;2.00;1.40;;;24.10;99.90;;;;;;4948198;28;20777;-62
2023/06/04 09:16:00;;;;;;;1.23;1.23;;;24.10;99.90;;;;;;4945206;28;20231;-63
2023/06/04 09:18:29;;;;;;;2.47;1.43;;;24.20;99.90;;;;;;4943967;28;20684;-60
2023/06/04 09:21:08;;;;;;;1.30;1.30;;;24.60;99.50;;;;;;4944095;29;20573;-62
2023/06/04 09:23:44;;;;;;;2.10;1.40;;;25.00;98.00;;;;;;4947478;28;20224;-62
2023/06/04 09:26:13;;;;;;;1.58;1.50;;;25.00;98.10;;;;;;4940457;28;20750;-62
2023/06/04 09:28:42;;;;;;;2.53;1.50;;;24.80;97.10;;;;;;4941941;28;20689;-62
2023/06/04 09:31:11;;;;;;;1.60;1.35;;;25.00;96.00;;;;;;4937135;28;20217;-62
2023/06/04 09:33:46;;;;;;;1.70;1.60;;;25.20;96.90;;;;;;4939876;28;20229;-62
2023/06/04 09:36:16;;;;;;;1.33;1.33;;;25.30;96.40;;;;;;4944369;29;20196;-62
2023/06/04 09:38:45;;;;;;;1.45;1.35;;;25.50;95.60;;;;;;4941625;28;20219;-62
2023/06/04 09:41:14;;;;;;;1.77;1.48;;;25.80;94.20;;;;;;4941922;28;20228;-63
2023/06/04 09:43:43;;;;;;;1.58;1.48;;;26.10;93.90;;;;;;4941501;28;20223;-62
2023/06/04 09:46:13;;;;;;;2.58;1.40;;;26.40;94.70;;;;;;4945162;28;20339;-62
2023/06/04 09:48:43;;;;;;;4.22;1.52;;;26.10;93.50;;;;;;4947543;28;20305;-62
2023/06/04 09:51:12;;;;;;;1.45;1.33;;;26.10;92.80;;;;;;4941711;29;20218;-62
2023/06/04 09:53:42;;;;;;;2.80;1.65;;;26.40;92.90;;;;;;4940915;28;20245;-63
2023/06/04 09:56:11;;;;;;;1.67;1.35;;;26.30;93.60;;;;;;4942378;28;20233;-63
2023/06/04 09:58:39;;;;;;;1.38;1.27;;;26.00;91.50;;;;;;4943222;28;20232;-63
2023/06/04 10:01:11;;;;;;;4.20;1.40;;;25.90;91.00;;;;;;4945763;28;20584;-63
2023/06/04 10:03:42;;;;;;;1.42;1.40;;;26.00;92.30;;;;;;4952587;28;20191;-62
2023/06/04 10:06:11;;;;;;;1.23;1.20;;;26.40;91.20;;;;;;4949027;28;20194;-63
2023/06/04 10:08:43;;;;;;;3.28;1.50;;;26.80;91.80;;;;;;4947311;28;20225;-62
2023/06/04 10:11:14;;;;;;;1.52;1.40;;;27.00;91.30;;;;;;4948398;28;20618;-63
2023/06/04 10:13:47;;;;;;;1.20;1.20;;;26.90;90.90;;;;;;4949815;28;20566;-62
2023/06/04 10:16:16;;;;;;;1.30;1.30;;;27.20;90.00;;;;;;4944820;28;20227;-63
2023/06/04 10:19:01;;;;;;;3.63;1.50;;;27.40;91.30;;;;;;4950132;28;20235;-63
2023/06/04 10:21:31;;;;;;;1.48;1.45;;;27.60;87.50;;;;;;4959204;28;20247;-63
2023/06/04 10:24:01;;;;;;;2.80;1.38;;;27.50;88.60;;;;;;4952417;28;20329;-63
2023/06/04 10:26:30;;;;;;;3.03;1.35;;;27.40;88.90;;;;;;4940464;28;20223;-62
2023/06/04 10:29:01;;;;;;;2.85;1.48;;;27.70;88.40;;;;;;4945908;28;20319;-63
2023/06/04 10:31:29;;;;;;;4.13;1.30;;;27.70;82.30;;;;;;4952038;28;20235;-63
2023/06/04 10:33:58;;;;;;;5.60;1.30;;;27.60;83.30;;;;;;4945869;28;20919;-63
2023/06/04 10:36:28;;;;;;;5.75;1.40;;;27.40;88.10;;;;;;4940203;28;20195;-63
2023/06/04 10:38:57;;;;;;;1.83;1.33;;;27.40;83.80;;;;;;4949182;29;20226;-63
2023/06/04 10:41:26;;;;;;;3.15;1.38;;;27.30;83.70;;;;;;4947373;28;20234;-63
2023/06/04 10:44:02;;;;;;;2.83;1.58;;;27.40;85.50;;;;;;4946752;28;20321;-63
2023/06/04 10:46:40;;;;;;;2.08;1.30;;;27.40;87.30;;;;;;4946377;28;20238;-63
2023/06/04 10:49:11;;;;;;;1.42;1.33;;;27.40;86.90;;;;;;4949238;28;20219;-63
2023/06/04 10:51:39;;;;;;;1.42;1.38;;;27.60;85.20;;;;;;4948325;28;20204;-62
2023/06/04 10:54:07;;;;;;;1.48;1.30;;;27.90;83.50;;;;;;4947104;29;20211;-63
2023/06/04 10:56:37;;;;;;;1.95;1.33;;;28.30;85.10;;;;;;4951429;28;20234;-63
2023/06/04 10:59:16;;;;;;;1.55;1.42;;;28.30;87.10;;;;;;4948305;28;20320;-63
2023/06/04 11:01:45;;;;;;;2.72;1.52;;;27.80;90.20;;;;;;4946642;28;20229;-63
2023/06/04 11:04:24;;;;;;;1.52;1.52;;;27.80;86.00;;;;;;4944323;28;20226;-63
2023/06/04 11:07:03;;;;;;;2.25;1.35;;;27.80;84.50;;;;;;4949586;28;20233;-63
2023/06/04 11:09:32;;;;;;;2.35;2.00;;;27.80;88.90;;;;;;4945224;28;20204;-62
2023/06/04 11:12:05;;;;;;;1.52;1.40;;;27.80;82.60;;;;;;4947948;29;20206;-63
2023/06/04 11:14:33;;;;;;;1.60;1.50;;;27.50;83.40;;;;;;4944870;28;20230;-63
2023/06/04 11:17:11;;;;;;;2.40;1.20;;;27.50;89.00;;;;;;4944973;28;20232;-63
2023/06/04 11:19:39;;;;;;;2.20;1.45;;;27.40;86.30;;;;;;4944019;28;20257;-62
2023/06/04 11:22:12;;;;;;;2.67;1.50;;;27.40;86.60;;;;;;4944590;28;20230;-63
2023/06/04 11:24:41;;;;;;;3.80;1.40;;;27.20;79.50;;;;;;4945444;28;20247;-62
2023/06/04 11:27:10;;;;;;;1.58;1.48;;;27.20;83.80;;;;;;4950670;28;20209;-63
2023/06/04 11:29:52;;;;;;;1.52;1.42;;;26.70;78.80;;;;;;4943541;28;20229;-62
2023/06/04 11:32:24;;;;;;;2.53;1.43;;;26.80;79.40;;;;;;4938528;28;20731;-62
2023/06/04 11:35:03;;;;;;;2.00;1.40;;;26.40;80.90;;;;;;4941644;28;20232;-62
2023/06/04 11:37:32;;;;;;;1.63;1.40;;;26.50;84.80;;;;;;4943833;28;20224;-62
2023/06/04 11:40:01;;;;;;;1.60;1.23;;;26.50;80.40;;;;;;4952386;28;20238;-62
2023/06/04 11:42:31;;;;;;;1.60;1.50;;;26.50;80.90;;;;;;4946741;28;20201;-62
2023/06/04 11:45:00;;;;;;;1.20;1.20;;;26.40;79.00;;;;;;4950078;28;20188;-62
2023/06/04 11:47:29;;;;;;;1.53;1.40;;;26.40;80.70;;;;;;4946282;28;20236;-62
2023/06/04 11:50:00;;;;;;;1.17;1.17;;;26.60;83.00;;;;;;4937507;28;20225;-62
2023/06/04 11:52:29;;;;;;;2.70;1.47;;;26.60;79.30;;;;;;4949154;28;20224;-62
2023/06/04 11:54:57;;;;;;;2.57;1.43;;;26.70;80.80;;;;;;4946869;28;20239;-62
2023/06/04 11:57:25;;;;;;;1.70;1.67;;;26.70;86.70;;;;;;4947076;28;20208;-62
2023/06/04 11:59:55;;;;;;;1.50;1.50;;;26.60;87.60;;;;;;4947088;29;20233;-62
2023/06/04 12:02:24;;;;;;;1.40;1.40;;;26.70;83.20;;;;;;4947643;28;20238;-62
2023/06/04 12:04:52;;;;;;;1.70;1.40;;;26.70;77.30;;;;;;4943754;28;20224;-62
2023/06/04 12:07:24;;;;;;;1.57;1.30;;;26.60;82.10;;;;;;4940642;28;20232;-62
2023/06/04 12:09:55;;;;;;;2.03;1.30;;;26.60;89.40;;;;;;4946384;28;20334;-62
2023/06/04 12:12:24;;;;;;;1.93;1.53;;;26.50;78.10;;;;;;4947836;28;20231;-62
2023/06/04 12:15:00;;;;;;;1.50;1.50;;;26.20;77.30;;;;;;4945058;28;20235;-62
2023/06/04 12:17:28;;;;;;;1.60;1.50;;;26.00;83.30;;;;;;4942289;29;20228;-62
2023/06/04 12:19:58;;;;;;;2.30;1.47;;;25.90;78.40;;;;;;4946132;28;20238;-62
2023/06/04 12:22:27;;;;;;;3.03;1.80;;;25.90;86.90;;;;;;4942528;28;20293;-63
2023/06/04 12:24:58;;;;;;;2.63;1.50;;;26.00;79.40;;;;;;4944919;28;20259;-62
2023/06/04 12:27:27;;;;;;;1.53;1.43;;;25.80;83.10;;;;;;4934262;28;20670;-62
2023/06/04 12:29:57;;;;;;;1.57;1.47;;;25.50;81.80;;;;;;4942502;29;20233;-62
2023/06/04 12:32:27;;;;;;;1.63;1.40;;;25.60;82.70;;;;;;4942009;28;20239;-62
2023/06/04 12:34:56;;;;;;;1.63;1.30;;;25.70;79.90;;;;;;4943566;28;20327;-62
2023/06/04 12:37:27;;;;;;;1.70;1.60;;;25.70;88.80;;;;;;4946533;28;20221;-62
2023/06/04 12:39:55;;;;;;;6.53;1.37;;;25.70;80.90;;;;;;4945198;28;20393;-62
2023/06/04 12:42:24;;;;;;;1.87;1.60;;;25.70;81.60;;;;;;4938805;28;20207;-62
2023/06/04 12:44:52;;;;;;;1.53;1.50;;;26.00;86.90;;;;;;4938690;28;20238;-62
2023/06/04 12:47:21;;;;;;;2.00;1.37;;;26.00;81.20;;;;;;4937083;29;20236;-62
2023/06/04 12:49:52;;;;;;;3.90;1.70;;;26.10;84.70;;;;;;4942600;28;20227;-62
2023/06/04 12:52:20;;;;;;;2.60;1.40;;;26.40;87.00;;;;;;4942068;28;20235;-62
2023/06/04 12:54:49;;;;;;;4.30;1.70;;;26.50;86.50;;;;;;4935858;28;20216;-62
2023/06/04 12:57:18;;;;;;;1.30;1.30;;;26.60;89.90;;;;;;4946547;28;20192;-62
2023/06/04 12:59:46;;;;;;;1.83;1.73;;;26.70;80.90;;;;;;4934493;28;20726;-62